Time;durP1;ratioP1;P1;durP2;ratioP2;P2;SDS_P1;SDS_P2;PMS_P1;PMS_P2;Temp;Humidity;BMP_temperature;BMP_pressure;BME280_temperature;BME280_humidity;BME280_pressure;Samples;Min_cycle;Max_cycle;Signal;HPM_P1;HPM_P2
2023/07/11 00:00:58;;;;;;;3.45;2.13;;;17.70;99.90;;;;;;6051481;23;20033;-70
2023/07/11 00:03:24;;;;;;;6.28;2.55;;;17.70;99.90;;;;;;6099952;23;20093;-69
2023/07/11 00:06:01;;;;;;;4.20;2.40;;;17.70;99.90;;;;;;6050595;23;20224;-69
2023/07/11 00:08:27;;;;;;;4.50;2.65;;;17.80;99.90;;;;;;6099585;23;20022;-69
2023/07/11 00:10:53;;;;;;;3.38;2.20;;;17.70;99.90;;;;;;6099408;23;20020;-70
2023/07/11 00:13:19;;;;;;;3.75;2.50;;;17.70;99.90;;;;;;6099479;23;20019;-70
2023/07/11 00:15:59;;;;;;;4.07;2.35;;;17.70;99.90;;;;;;6097394;23;20774;-70
2023/07/11 00:18:24;;;;;;;3.90;2.65;;;17.70;99.90;;;;;;6099237;23;20025;-69
2023/07/11 00:20:50;;;;;;;3.60;2.80;;;17.70;99.90;;;;;;6074744;23;20026;-70
2023/07/11 00:23:16;;;;;;;4.03;2.58;;;17.70;99.90;;;;;;6097668;23;20018;-70
2023/07/11 00:25:41;;;;;;;6.53;2.92;;;17.70;99.90;;;;;;6075250;23;20038;-70
2023/07/11 00:28:07;;;;;;;4.95;2.63;;;17.80;99.90;;;;;;6098620;23;20054;-70
2023/07/11 00:30:33;;;;;;;4.70;2.60;;;17.80;99.90;;;;;;6051021;23;20060;-69
2023/07/11 00:32:58;;;;;;;4.75;2.80;;;17.90;99.90;;;;;;6099218;23;20069;-70
2023/07/11 00:35:24;;;;;;;5.97;2.72;;;17.90;99.90;;;;;;6075587;23;20030;-70
2023/07/11 00:37:50;;;;;;;6.30;2.67;;;17.90;99.90;;;;;;6098812;23;20343;-69
2023/07/11 00:40:15;;;;;;;6.20;2.45;;;17.90;99.90;;;;;;6097783;23;20030;-70
2023/07/11 00:42:41;;;;;;;4.50;2.25;;;18.00;99.90;;;;;;6100532;23;20050;-70
2023/07/11 00:45:45;;;;;;;4.57;2.95;;;18.00;99.90;;;;;;6049671;23;20023;-71
2023/07/11 00:48:11;;;;;;;5.22;2.55;;;18.00;99.90;;;;;;6101027;23;20050;-70
2023/07/11 00:50:39;;;;;;;3.78;2.40;;;18.00;99.90;;;;;;6098339;23;20042;-70
2023/07/11 00:53:06;;;;;;;5.90;2.80;;;18.00;99.90;;;;;;6098493;23;20022;-70
2023/07/11 00:55:32;;;;;;;7.88;2.92;;;18.10;99.90;;;;;;6099315;23;20019;-70
2023/07/11 00:57:58;;;;;;;6.07;3.10;;;18.10;99.90;;;;;;6073354;23;20396;-70
2023/07/11 01:00:23;;;;;;;5.18;2.70;;;18.10;99.90;;;;;;6099116;23;20032;-70
2023/07/11 01:02:49;;;;;;;6.70;2.25;;;18.10;99.90;;;;;;6049210;23;20117;-70
2023/07/11 01:05:15;;;;;;;5.13;2.75;;;18.10;99.90;;;;;;6051002;23;20022;-70
2023/07/11 01:07:41;;;;;;;5.32;2.60;;;18.00;99.90;;;;;;6098272;23;20018;-69
2023/07/11 01:10:07;;;;;;;8.00;2.85;;;18.00;99.90;;;;;;6098592;23;20053;-69
2023/07/11 01:12:33;;;;;;;4.38;2.55;;;18.00;99.90;;;;;;6101557;23;20026;-70
2023/07/11 01:14:59;;;;;;;4.55;2.90;;;18.00;99.90;;;;;;6097811;23;20023;-70
2023/07/11 01:17:30;;;;;;;3.70;2.60;;;18.00;99.90;;;;;;6099906;23;20026;-70
2023/07/11 01:19:59;;;;;;;4.57;2.85;;;18.00;99.90;;;;;;6099404;23;20063;-70
2023/07/11 01:22:27;;;;;;;3.20;2.90;;;18.10;99.90;;;;;;6101515;23;20030;-70
2023/07/11 01:24:52;;;;;;;5.57;2.63;;;18.00;99.90;;;;;;6100235;23;20078;-70
2023/07/11 01:27:22;;;;;;;6.20;3.00;;;18.10;99.90;;;;;;6075915;23;20018;-70
2023/07/11 01:29:52;;;;;;;5.22;2.90;;;18.10;99.90;;;;;;6076178;23;20074;-70
2023/07/11 01:32:19;;;;;;;4.03;2.70;;;18.00;99.90;;;;;;6100307;23;20086;-71
2023/07/11 01:34:45;;;;;;;4.72;2.90;;;18.00;99.90;;;;;;6102735;23;20023;-71
2023/07/11 01:37:10;;;;;;;4.07;2.78;;;18.00;99.90;;;;;;6099210;23;20026;-71
2023/07/11 01:39:36;;;;;;;6.25;2.85;;;18.00;99.90;;;;;;6100970;23;20022;-71
2023/07/11 01:42:03;;;;;;;6.13;2.90;;;18.00;99.90;;;;;;6100516;23;20022;-71
2023/07/11 01:44:29;;;;;;;5.97;3.20;;;18.00;99.90;;;;;;6027957;23;20080;-70
2023/07/11 01:46:55;;;;;;;7.88;3.22;;;18.00;99.90;;;;;;6076403;23;20018;-70
2023/07/11 01:49:20;;;;;;;5.78;3.10;;;18.00;99.90;;;;;;6050665;23;20045;-74
2023/07/11 01:51:46;;;;;;;3.85;3.13;;;18.00;99.90;;;;;;6100663;23;20050;-71
2023/07/11 01:54:13;;;;;;;5.05;3.10;;;17.90;99.90;;;;;;6100368;23;20566;-71
2023/07/11 01:56:38;;;;;;;6.60;2.88;;;17.90;99.90;;;;;;6100340;23;20037;-70
2023/07/11 01:59:06;;;;;;;4.78;2.72;;;17.90;99.90;;;;;;6099208;23;20019;-70
2023/07/11 02:01:32;;;;;;;6.88;3.05;;;17.80;99.90;;;;;;6099302;23;20030;-70
2023/07/11 02:03:57;;;;;;;4.90;3.05;;;17.80;99.90;;;;;;6100618;23;20026;-70
2023/07/11 02:06:23;;;;;;;4.53;2.70;;;17.80;99.90;;;;;;6098858;23;20101;-70
2023/07/11 02:08:49;;;;;;;6.15;2.63;;;17.80;99.90;;;;;;6076273;23;20496;-70
2023/07/11 02:11:15;;;;;;;6.30;2.72;;;17.70;99.90;;;;;;6098175;23;20029;-71
2023/07/11 02:13:41;;;;;;;4.75;2.95;;;17.70;99.90;;;;;;6100551;23;20026;-70
2023/07/11 02:16:07;;;;;;;4.70;3.10;;;17.60;99.90;;;;;;6100548;23;20060;-70
2023/07/11 02:18:34;;;;;;;5.93;2.80;;;17.60;99.90;;;;;;6101369;23;20026;-70
2023/07/11 02:21:00;;;;;;;6.60;2.65;;;17.60;99.90;;;;;;6099605;23;20343;-70
2023/07/11 02:23:26;;;;;;;5.10;2.55;;;17.50;99.90;;;;;;6098406;23;20086;-70
2023/07/11 02:25:54;;;;;;;7.13;3.00;;;17.50;99.90;;;;;;6100108;23;20023;-70
2023/07/11 02:28:21;;;;;;;4.85;3.00;;;17.40;99.90;;;;;;6098422;23;20050;-70
2023/07/11 02:30:47;;;;;;;6.75;3.15;;;17.40;99.90;;;;;;6099751;23;20399;-70
2023/07/11 02:33:13;;;;;;;5.97;3.20;;;17.40;99.90;;;;;;6100822;23;20037;-70
2023/07/11 02:35:39;;;;;;;9.07;3.55;;;17.40;99.90;;;;;;6075700;23;20015;-70
2023/07/11 02:38:05;;;;;;;7.35;3.40;;;17.40;99.90;;;;;;6075949;23;20022;-70
2023/07/11 02:40:31;;;;;;;6.78;3.70;;;17.40;99.90;;;;;;6100160;23;20330;-71
2023/07/11 02:42:57;;;;;;;6.28;3.30;;;17.40;99.90;;;;;;6052612;23;20488;-70
2023/07/11 02:45:22;;;;;;;5.80;3.20;;;17.40;99.90;;;;;;6074146;23;20075;-70
2023/07/11 02:47:48;;;;;;;5.28;3.50;;;17.30;99.90;;;;;;6101458;23;20036;-70
2023/07/11 02:50:14;;;;;;;5.97;3.63;;;17.30;99.90;;;;;;6098205;23;20022;-70
2023/07/11 02:52:40;;;;;;;7.07;3.47;;;17.30;99.90;;;;;;6075577;23;20028;-70
2023/07/11 02:55:06;;;;;;;10.38;3.63;;;17.20;99.90;;;;;;6075965;23;20030;-70
2023/07/11 02:57:32;;;;;;;5.78;3.83;;;17.20;99.90;;;;;;6098418;23;20018;-71
2023/07/11 02:59:58;;;;;;;5.40;3.47;;;17.20;99.90;;;;;;6101577;23;20093;-70
2023/07/11 03:02:23;;;;;;;7.88;3.50;;;17.10;99.90;;;;;;6100171;23;20133;-71
2023/07/11 03:04:51;;;;;;;5.50;3.55;;;17.10;99.90;;;;;;6099712;23;20099;-71
2023/07/11 03:07:18;;;;;;;5.35;3.47;;;17.10;99.90;;;;;;6098010;23;20026;-71
2023/07/11 03:09:43;;;;;;;7.00;3.67;;;17.00;99.90;;;;;;6099422;23;20082;-71
2023/07/11 03:12:09;;;;;;;5.10;3.20;;;17.00;99.90;;;;;;6075264;23;20018;-70
2023/07/11 03:14:37;;;;;;;6.30;3.58;;;17.00;99.90;;;;;;6099731;23;20023;-71
2023/07/11 03:17:03;;;;;;;7.40;4.03;;;16.90;99.90;;;;;;6099522;23;20058;-71
2023/07/11 03:19:28;;;;;;;5.28;3.28;;;17.00;99.90;;;;;;6073395;23;20030;-71
2023/07/11 03:21:54;;;;;;;6.47;3.65;;;16.90;99.90;;;;;;6099358;23;20026;-71
2023/07/11 03:24:20;;;;;;;4.38;3.20;;;16.90;99.90;;;;;;6026150;23;20070;-71
2023/07/11 03:26:46;;;;;;;5.55;3.05;;;16.80;99.90;;;;;;6099402;23;20022;-70
2023/07/11 03:29:15;;;;;;;4.55;3.33;;;16.80;99.90;;;;;;6074737;23;20109;-70
2023/07/11 03:31:42;;;;;;;4.65;3.33;;;16.80;99.90;;;;;;6099186;23;20029;-70
2023/07/11 03:34:08;;;;;;;8.68;3.75;;;16.80;99.90;;;;;;6074000;23;20026;-70
2023/07/11 03:36:33;;;;;;;5.05;3.25;;;16.80;99.90;;;;;;6095623;23;20019;-71
2023/07/11 03:38:59;;;;;;;7.47;4.22;;;16.90;99.90;;;;;;6099854;23;20026;-70
2023/07/11 03:41:25;;;;;;;5.18;3.97;;;17.00;99.90;;;;;;6095889;23;20026;-70
2023/07/11 03:43:50;;;;;;;5.55;3.30;;;17.00;99.90;;;;;;6074382;23;20026;-71
2023/07/11 03:46:16;;;;;;;5.03;3.58;;;17.00;99.90;;;;;;6096819;23;20025;-70
2023/07/11 03:48:42;;;;;;;5.55;3.40;;;17.00;99.90;;;;;;6099202;23;20033;-70
2023/07/11 03:51:07;;;;;;;4.88;3.17;;;17.00;99.90;;;;;;6049945;23;20033;-69
2023/07/11 03:53:33;;;;;;;4.70;3.47;;;17.00;99.90;;;;;;6097770;23;20019;-70
2023/07/11 03:55:59;;;;;;;3.95;2.92;;;17.00;99.90;;;;;;6098226;23;20154;-70
2023/07/11 03:58:26;;;;;;;5.20;3.60;;;17.10;99.90;;;;;;6047771;23;20290;-70
2023/07/11 04:00:51;;;;;;;5.85;3.50;;;17.10;99.90;;;;;;6098163;23;20029;-69
2023/07/11 04:03:17;;;;;;;8.18;4.00;;;17.10;99.90;;;;;;6098129;23;20544;-69
2023/07/11 04:05:43;;;;;;;7.88;3.50;;;17.10;99.90;;;;;;6073424;23;20029;-70
2023/07/11 04:08:08;;;;;;;5.28;3.50;;;17.10;99.90;;;;;;6099614;23;20022;-70
2023/07/11 04:10:35;;;;;;;7.07;3.50;;;17.10;99.90;;;;;;6071913;23;20023;-70
2023/07/11 04:13:02;;;;;;;5.85;3.45;;;17.10;99.90;;;;;;6100163;23;20022;-70
2023/07/11 04:15:28;;;;;;;6.65;3.97;;;17.20;99.90;;;;;;6071703;23;20030;-69
2023/07/11 04:17:54;;;;;;;6.13;3.83;;;17.20;99.90;;;;;;6099936;23;20030;-70
2023/07/11 04:20:20;;;;;;;6.63;4.10;;;17.20;99.90;;;;;;6095950;23;20026;-70
2023/07/11 04:22:45;;;;;;;6.22;4.32;;;17.30;99.90;;;;;;6099368;23;20022;-70
2023/07/11 04:25:11;;;;;;;8.48;4.07;;;17.30;99.90;;;;;;6073536;23;20023;-70
2023/07/11 04:27:37;;;;;;;6.07;4.18;;;17.30;99.90;;;;;;6097824;23;20021;-70
2023/07/11 04:30:04;;;;;;;6.53;4.45;;;17.40;99.90;;;;;;6097712;23;20023;-70
2023/07/11 04:32:29;;;;;;;8.23;4.68;;;17.40;99.90;;;;;;6097266;23;20086;-70
2023/07/11 04:34:55;;;;;;;7.43;4.53;;;17.50;99.90;;;;;;6074334;23;20050;-70
2023/07/11 04:37:21;;;;;;;6.57;4.90;;;17.60;99.90;;;;;;6098001;23;20042;-70
2023/07/11 04:39:47;;;;;;;8.55;4.63;;;17.70;99.90;;;;;;6097658;23;20082;-70
2023/07/11 04:42:12;;;;;;;7.35;4.65;;;17.80;99.90;;;;;;6072901;23;20558;-71
2023/07/11 04:44:38;;;;;;;8.13;5.05;;;17.90;99.90;;;;;;6096359;23;20138;-70
2023/07/11 04:47:04;;;;;;;6.88;4.47;;;17.90;99.90;;;;;;6073666;23;20022;-70
2023/07/11 04:49:29;;;;;;;8.77;4.82;;;18.10;99.90;;;;;;6095762;23;20397;-71
2023/07/11 04:51:55;;;;;;;7.28;4.53;;;18.20;99.90;;;;;;6099549;23;20122;-70
2023/07/11 04:54:21;;;;;;;11.70;5.07;;;18.20;99.90;;;;;;6071776;23;20383;-71
2023/07/11 04:56:55;;;;;;;6.97;5.25;;;18.20;99.90;;;;;;6099474;23;20062;-70
2023/07/11 04:59:20;;;;;;;9.00;5.43;;;18.30;99.90;;;;;;6096634;23;20026;-69
2023/07/11 05:01:46;;;;;;;8.52;5.05;;;18.30;99.90;;;;;;6097789;23;20057;-70
2023/07/11 05:04:12;;;;;;;6.95;5.10;;;18.40;99.90;;;;;;6097535;23;20022;-71
2023/07/11 05:06:37;;;;;;;8.68;5.20;;;18.40;99.90;;;;;;6047822;23;20030;-71
2023/07/11 05:09:03;;;;;;;11.13;5.25;;;18.40;99.90;;;;;;6099471;23;20452;-69
2023/07/11 05:11:29;;;;;;;7.13;4.70;;;18.40;99.90;;;;;;6095772;23;20018;-70
2023/07/11 05:13:54;;;;;;;8.88;4.95;;;18.50;99.90;;;;;;6099004;23;20018;-70
2023/07/11 05:16:24;;;;;;;6.60;5.57;;;18.50;99.90;;;;;;6072404;23;20046;-71
2023/07/11 05:18:51;;;;;;;7.45;4.97;;;18.50;99.90;;;;;;6096201;23;20030;-71
2023/07/11 05:21:18;;;;;;;8.15;4.90;;;18.50;99.90;;;;;;6098796;23;20601;-71
2023/07/11 05:23:44;;;;;;;6.80;4.93;;;18.60;99.90;;;;;;6095614;23;20058;-71
2023/07/11 05:26:11;;;;;;;7.25;4.75;;;18.60;99.90;;;;;;6073969;23;20018;-71
2023/07/11 05:28:37;;;;;;;10.45;5.20;;;18.70;99.90;;;;;;6047914;23;20034;-70
2023/07/11 05:31:05;;;;;;;8.27;4.38;;;18.80;99.90;;;;;;6099246;23;20093;-70
2023/07/11 05:33:32;;;;;;;6.35;4.97;;;18.90;99.90;;;;;;6098601;23;20069;-70
2023/07/11 05:38:51;;;;;;;8.25;4.60;;;19.00;99.90;;;;;;6097327;23;20193;-70
2023/07/11 05:41:18;;;;;;;7.55;4.90;;;19.10;99.90;;;;;;6095941;23;20030;-69
2023/07/11 05:43:45;;;;;;;6.72;4.57;;;19.20;99.90;;;;;;6098414;23;20022;-85
2023/07/11 05:46:11;;;;;;;6.65;4.53;;;19.30;99.90;;;;;;6072404;23;20022;-69
2023/07/11 05:48:37;;;;;;;8.90;4.80;;;19.40;99.90;;;;;;6097037;23;20098;-69
2023/07/11 05:51:06;;;;;;;7.03;4.70;;;19.50;99.90;;;;;;6073213;23;20022;-69
2023/07/11 05:53:33;;;;;;;8.05;4.57;;;19.60;99.90;;;;;;6071979;23;20507;-70
2023/07/11 05:55:58;;;;;;;6.95;4.65;;;19.60;99.90;;;;;;6073476;23;20019;-69
2023/07/11 05:58:29;;;;;;;6.60;4.35;;;19.70;99.90;;;;;;6095823;23;20025;-70
2023/07/11 06:00:56;;;;;;;8.65;4.72;;;19.70;99.90;;;;;;6098585;23;20026;-70
2023/07/11 06:03:24;;;;;;;10.02;4.68;;;19.90;99.90;;;;;;6096740;23;20384;-70
2023/07/11 06:05:50;;;;;;;7.68;4.63;;;20.00;99.90;;;;;;6098839;23;20026;-70
2023/07/11 06:08:16;;;;;;;7.60;4.70;;;20.10;99.90;;;;;;6100941;23;20456;-70
2023/07/11 06:10:43;;;;;;;7.80;4.82;;;20.30;99.90;;;;;;6074069;23;20362;-70
2023/07/11 06:13:14;;;;;;;7.53;4.78;;;20.40;99.90;;;;;;6101736;23;20026;-70
2023/07/11 06:15:40;;;;;;;6.50;4.50;;;20.50;99.90;;;;;;6100217;23;20097;-70
2023/07/11 06:18:06;;;;;;;8.38;5.00;;;20.60;99.90;;;;;;6099434;23;20026;-70
2023/07/11 06:20:32;;;;;;;7.47;4.63;;;20.70;99.90;;;;;;6099439;23;20022;-70
2023/07/11 06:22:58;;;;;;;8.88;4.93;;;20.80;99.90;;;;;;6097527;23;20025;-70
2023/07/11 06:25:24;;;;;;;5.70;4.60;;;20.90;99.90;;;;;;6101172;23;20033;-70
2023/07/11 06:27:50;;;;;;;6.93;4.40;;;21.00;99.90;;;;;;6099970;23;20105;-70
2023/07/11 06:30:16;;;;;;;8.25;4.72;;;21.10;99.90;;;;;;6099460;23;20014;-70
2023/07/11 06:32:41;;;;;;;6.30;4.85;;;21.20;99.90;;;;;;6097893;23;20075;-70
2023/07/11 06:35:08;;;;;;;9.68;4.97;;;21.30;99.90;;;;;;6099610;23;20046;-70
2023/07/11 06:37:34;;;;;;;5.30;4.45;;;21.40;99.90;;;;;;6099798;23;20022;-70
2023/07/11 06:40:00;;;;;;;7.78;4.50;;;21.50;99.90;;;;;;6100406;23;20121;-70
2023/07/11 06:42:25;;;;;;;6.13;3.92;;;21.50;99.90;;;;;;6100581;23;20022;-70
2023/07/11 06:44:51;;;;;;;8.32;4.70;;;21.60;99.90;;;;;;6099559;23;20072;-70
2023/07/11 06:47:17;;;;;;;6.32;4.65;;;21.70;99.90;;;;;;6075257;23;20392;-70
2023/07/11 06:49:44;;;;;;;9.13;4.40;;;21.90;99.90;;;;;;6072983;23;20029;-70
2023/07/11 06:52:10;;;;;;;7.22;4.38;;;22.00;99.90;;;;;;6099475;23;20030;-70
2023/07/11 06:54:36;;;;;;;9.38;5.30;;;22.00;99.90;;;;;;6099144;23;20026;-70
2023/07/11 06:57:01;;;;;;;7.28;4.30;;;22.10;99.90;;;;;;6100547;23;20065;-70
2023/07/11 06:59:27;;;;;;;7.13;4.22;;;22.10;99.90;;;;;;6098928;23;20022;-69
2023/07/11 07:01:53;;;;;;;6.18;4.07;;;22.20;99.90;;;;;;6098949;23;20038;-70
2023/07/11 07:04:18;;;;;;;8.93;5.03;;;22.30;99.90;;;;;;6101198;23;20452;-70
2023/07/11 07:06:44;;;;;;;5.88;4.30;;;22.30;99.90;;;;;;6096555;23;20026;-69
2023/07/11 07:09:11;;;;;;;7.10;4.90;;;22.20;99.90;;;;;;6101561;23;20045;-70
2023/07/11 07:11:37;;;;;;;5.63;4.28;;;22.30;99.90;;;;;;6073925;23;20453;-69
2023/07/11 07:14:05;;;;;;;7.35;4.60;;;22.30;99.90;;;;;;6100941;23;20304;-70
2023/07/11 07:16:32;;;;;;;6.57;4.60;;;22.40;99.90;;;;;;6098977;23;20022;-69
2023/07/11 07:18:58;;;;;;;6.50;4.40;;;22.40;99.90;;;;;;6097831;23;20418;-69
2023/07/11 07:21:24;;;;;;;5.82;4.43;;;22.50;99.90;;;;;;6101055;23;20334;-69
2023/07/11 07:23:50;;;;;;;8.70;4.60;;;22.50;99.90;;;;;;6073647;23;20029;-69
2023/07/11 07:26:15;;;;;;;6.88;4.57;;;22.40;99.90;;;;;;6099190;23;20377;-69
2023/07/11 07:28:41;;;;;;;6.55;4.20;;;22.40;99.90;;;;;;6097229;23;20014;-70
2023/07/11 07:31:08;;;;;;;5.95;4.30;;;22.40;99.90;;;;;;6100576;23;20022;-70
2023/07/11 07:33:34;;;;;;;5.97;4.18;;;22.50;99.90;;;;;;6100218;23;20023;-69
2023/07/11 07:36:03;;;;;;;5.85;4.47;;;22.60;99.90;;;;;;6073921;23;20041;-70
2023/07/11 07:38:29;;;;;;;6.35;4.43;;;22.80;99.90;;;;;;6101105;23;20026;-70
2023/07/11 07:40:56;;;;;;;4.82;4.13;;;23.00;99.90;;;;;;6098859;23;20026;-70
2023/07/11 07:43:23;;;;;;;8.30;4.68;;;23.20;99.90;;;;;;6099236;23;20018;-70
2023/07/11 07:45:50;;;;;;;5.53;4.40;;;23.20;99.90;;;;;;6096980;23;20032;-70
2023/07/11 07:48:17;;;;;;;5.47;4.07;;;23.20;99.90;;;;;;6098948;23;20022;-70
2023/07/11 07:50:42;;;;;;;7.78;4.75;;;23.20;99.90;;;;;;6098007;23;20093;-70
2023/07/11 07:53:08;;;;;;;7.43;4.13;;;23.30;99.90;;;;;;6073997;23;20069;-69
2023/07/11 07:55:38;;;;;;;7.68;3.97;;;23.30;99.90;;;;;;6075269;23;20021;-70
2023/07/11 07:58:04;;;;;;;9.10;4.97;;;23.40;99.90;;;;;;6073467;23;20026;-70
2023/07/11 08:00:30;;;;;;;8.57;4.45;;;23.40;99.90;;;;;;6075169;23;20872;-70
2023/07/11 08:02:56;;;;;;;6.18;4.13;;;23.50;99.90;;;;;;6097967;23;20125;-69
2023/07/11 08:05:22;;;;;;;7.13;4.20;;;23.50;99.90;;;;;;6098815;23;20015;-69
2023/07/11 08:07:48;;;;;;;5.53;3.40;;;23.40;99.90;;;;;;6099963;23;20062;-69
2023/07/11 08:10:15;;;;;;;5.20;3.95;;;23.40;99.90;;;;;;6096991;23;20026;-69
2023/07/11 08:12:41;;;;;;;9.85;4.05;;;23.50;99.90;;;;;;6100622;23;20025;-69
2023/07/11 08:15:08;;;;;;;5.68;3.67;;;23.60;99.90;;;;;;6096494;23;20014;-70
2023/07/11 08:17:34;;;;;;;6.93;4.20;;;23.80;99.90;;;;;;6098874;23;20029;-69
2023/07/11 08:20:00;;;;;;;6.45;3.60;;;24.10;99.90;;;;;;6072406;23;20026;-70
2023/07/11 08:22:26;;;;;;;5.25;3.30;;;24.20;99.90;;;;;;6098645;23;20018;-69
2023/07/11 08:24:53;;;;;;;5.97;3.55;;;24.30;99.90;;;;;;6074212;23;20026;-69
2023/07/11 08:27:18;;;;;;;8.18;3.70;;;24.40;99.90;;;;;;6073168;23;20023;-69
2023/07/11 08:29:45;;;;;;;7.07;3.33;;;24.60;99.90;;;;;;6102665;23;20033;-69
2023/07/11 08:32:12;;;;;;;6.60;3.38;;;24.80;99.90;;;;;;6127735;23;20029;-70
2023/07/11 08:34:38;;;;;;;4.93;3.42;;;24.90;99.90;;;;;;6129641;23;20017;-69
2023/07/11 08:37:04;;;;;;;3.45;3.03;;;25.00;99.90;;;;;;6101508;23;20490;-69
2023/07/11 08:39:30;;;;;;;8.07;3.40;;;25.10;99.90;;;;;;6129794;23;20026;-70
2023/07/11 08:42:14;;;;;;;4.90;3.53;;;25.20;99.90;;;;;;6128337;23;20021;-70
2023/07/11 08:44:50;;;;;;;5.57;3.30;;;25.40;99.90;;;;;;6127694;23;20025;-70
2023/07/11 08:47:23;;;;;;;6.55;3.20;;;25.40;99.90;;;;;;6129506;23;20074;-69
2023/07/11 08:50:00;;;;;;;5.13;3.22;;;25.40;99.90;;;;;;6100962;23;20018;-70
2023/07/11 08:52:29;;;;;;;4.85;2.90;;;25.50;99.90;;;;;;6128649;23;20044;-69
2023/07/11 08:55:03;;;;;;;6.28;3.20;;;25.50;99.90;;;;;;6128043;23;20044;-69
2023/07/11 08:57:34;;;;;;;7.03;2.95;;;25.50;99.90;;;;;;6101774;23;20050;-70
2023/07/11 09:00:12;;;;;;;6.05;3.13;;;25.50;99.90;;;;;;6129069;23;20068;-70
2023/07/11 09:02:56;;;;;;;5.18;2.88;;;25.50;99.90;;;;;;6101338;23;20030;-70
2023/07/11 09:06:04;;;;;;;7.72;3.42;;;25.60;99.90;;;;;;6129207;23;20025;-70
2023/07/11 09:08:31;;;;;;;6.05;3.20;;;25.70;99.90;;;;;;6129518;23;20037;-70
2023/07/11 09:11:35;;;;;;;4.65;2.92;;;25.80;99.90;;;;;;6127933;23;20124;-69
2023/07/11 09:14:07;;;;;;;7.40;3.30;;;25.80;99.90;;;;;;6102722;23;20025;-69
2023/07/11 09:16:35;;;;;;;6.93;3.00;;;25.80;99.90;;;;;;6103369;23;20018;-70
2023/07/11 09:19:40;;;;;;;5.65;3.13;;;25.90;99.90;;;;;;6102106;23;20021;-70
2023/07/11 09:22:17;;;;;;;4.88;2.80;;;25.80;99.90;;;;;;6059352;23;20022;-70
2023/07/11 09:25:07;;;;;;;6.03;3.05;;;25.80;99.90;;;;;;6128232;23;20026;-69
2023/07/11 09:27:52;;;;;;;9.50;3.83;;;25.70;99.90;;;;;;6128031;23;20029;-70
2023/07/11 09:30:31;;;;;;;4.13;3.40;;;25.80;99.90;;;;;;6113777;23;20026;-69
2023/07/11 09:33:15;;;;;;;6.80;3.25;;;25.90;99.90;;;;;;6098247;23;20030;-70
2023/07/11 09:35:43;;;;;;;7.95;3.60;;;26.00;99.90;;;;;;6097796;23;20459;-69
2023/07/11 09:38:27;;;;;;;6.20;3.15;;;26.30;99.90;;;;;;6098442;23;20028;-70
2023/07/11 09:41:04;;;;;;;6.95;3.00;;;26.50;99.90;;;;;;6097796;23;20041;-70
2023/07/11 09:43:30;;;;;;;5.85;2.70;;;26.60;99.90;;;;;;6076662;23;20030;-70
2023/07/11 09:45:56;;;;;;;5.13;2.90;;;26.70;99.90;;;;;;6098896;23;20381;-70
2023/07/11 09:48:34;;;;;;;5.90;3.38;;;26.80;99.90;;;;;;6099855;23;20089;-70
2023/07/11 09:51:05;;;;;;;5.97;3.00;;;26.70;99.90;;;;;;6101581;23;20034;-70
2023/07/11 09:53:32;;;;;;;7.05;2.95;;;26.60;99.90;;;;;;6098308;23;20022;-70
2023/07/11 09:56:08;;;;;;;4.85;2.88;;;26.60;99.90;;;;;;6101821;23;20073;-70
2023/07/11 09:58:34;;;;;;;6.72;2.58;;;26.50;99.90;;;;;;6074145;23;20022;-70
2023/07/11 10:01:02;;;;;;;4.65;2.28;;;26.50;99.90;;;;;;6101671;23;20057;-70
2023/07/11 10:03:30;;;;;;;3.72;2.30;;;26.50;97.40;;;;;;6101098;23;20022;-70
2023/07/11 10:05:56;;;;;;;8.77;2.35;;;26.70;92.10;;;;;;6099897;23;20026;-70
2023/07/11 10:08:28;;;;;;;4.32;2.40;;;26.90;85.50;;;;;;6100080;23;20026;-70
2023/07/11 10:11:00;;;;;;;5.40;2.33;;;27.10;80.50;;;;;;6073702;23;20018;-71
2023/07/11 10:13:26;;;;;;;4.18;2.60;;;27.20;81.30;;;;;;6101514;23;20026;-70
2023/07/11 10:15:54;;;;;;;4.50;2.50;;;27.30;77.60;;;;;;6098240;23;20054;-70
2023/07/11 10:18:24;;;;;;;6.05;2.35;;;27.40;78.50;;;;;;6075851;23;20018;-71
2023/07/11 10:20:57;;;;;;;5.28;2.60;;;27.60;80.20;;;;;;6099099;23;20050;-71
2023/07/11 10:23:24;;;;;;;4.78;2.38;;;27.80;90.10;;;;;;6097843;23;20022;-70
2023/07/11 10:26:04;;;;;;;6.72;2.30;;;28.00;81.50;;;;;;6101819;23;20378;-70
2023/07/11 10:28:33;;;;;;;6.25;2.25;;;28.10;79.20;;;;;;6097791;23;20045;-70
2023/07/11 10:31:12;;;;;;;5.85;2.20;;;28.20;72.20;;;;;;6099757;23;20042;-70
2023/07/11 10:33:50;;;;;;;3.88;2.13;;;28.30;72.10;;;;;;6100877;23;20105;-70
2023/07/11 10:36:46;;;;;;;5.25;2.20;;;28.30;68.80;;;;;;6097683;23;20030;-70
2023/07/11 10:39:18;;;;;;;3.33;2.25;;;28.30;69.30;;;;;;6100249;23;20022;-70
2023/07/11 10:41:48;;;;;;;;;;;28.30;67.90;;;;;;6100588;23;20050;-70
2023/07/11 10:44:29;;;;;;;2.90;2.00;;;28.30;68.20;;;;;;6098802;23;19917;-70
2023/07/11 10:46:56;;;;;;;8.35;2.20;;;28.40;78.30;;;;;;6075052;23;20026;-69
2023/07/11 10:49:31;;;;;;;3.83;2.10;;;28.40;72.90;;;;;;6097325;23;20039;-69
2023/07/11 10:52:22;;;;;;;5.82;2.53;;;28.50;70.80;;;;;;6076006;23;20110;-70
2023/07/11 10:55:02;;;;;;;3.92;2.30;;;28.50;72.10;;;;;;6100292;23;20077;-70
2023/07/11 10:57:39;;;;;;;4.85;2.50;;;28.60;71.10;;;;;;6097938;23;20389;-70
2023/07/11 11:00:16;;;;;;;4.70;2.25;;;28.70;71.10;;;;;;6099386;23;20030;-70
2023/07/11 11:02:44;;;;;;;5.50;2.30;;;28.70;72.70;;;;;;6099726;23;20057;-70
2023/07/11 11:05:19;;;;;;;5.50;2.40;;;28.50;70.20;;;;;;6075644;23;20559;-70
2023/07/11 11:07:49;;;;;;;4.80;2.05;;;28.50;73.30;;;;;;6100219;23;20026;-69
2023/07/11 11:10:47;;;;;;;6.78;2.20;;;28.60;75.20;;;;;;6099886;23;20066;-70
2023/07/11 11:13:27;;;;;;;5.80;2.50;;;28.80;82.10;;;;;;6101288;23;20022;-70
2023/07/11 11:16:11;;;;;;;3.67;2.40;;;28.80;74.80;;;;;;6097619;23;20061;-70
2023/07/11 11:19:10;;;;;;;4.72;2.58;;;28.80;75.70;;;;;;6099291;23;20022;-70
2023/07/11 11:22:00;;;;;;;4.25;2.70;;;28.90;75.20;;;;;;6051609;23;20089;-70
2023/07/11 11:24:52;;;;;;;6.50;2.58;;;28.90;70.40;;;;;;6097773;23;20033;-70
2023/07/11 11:27:18;;;;;;;5.90;2.40;;;29.00;71.90;;;;;;6097246;23;20022;-70
2023/07/11 11:30:06;;;;;;;4.10;2.08;;;29.10;74.00;;;;;;6098138;23;20014;-70
2023/07/11 11:32:46;;;;;;;3.85;2.15;;;29.20;73.70;;;;;;6098793;23;20042;-70
2023/07/11 11:35:39;;;;;;;3.45;2.30;;;29.40;73.90;;;;;;6074884;23;20074;-70
2023/07/11 11:38:29;;;;;;;3.28;2.72;;;29.50;71.80;;;;;;6100708;23;20026;-70
2023/07/11 11:40:59;;;;;;;5.55;2.80;;;29.20;69.30;;;;;;6096770;23;20042;-70
2023/07/11 11:43:26;;;;;;;3.55;2.20;;;29.00;70.60;;;;;;6074768;23;20018;-71
2023/07/11 11:45:53;;;;;;;3.60;2.20;;;29.00;74.30;;;;;;6097274;23;20066;-70
2023/07/11 11:48:27;;;;;;;5.57;2.50;;;29.20;72.80;;;;;;6100388;23;20030;-70
2023/07/11 11:50:54;;;;;;;4.05;2.13;;;29.20;71.10;;;;;;6100202;23;20057;-69
2023/07/11 11:53:41;;;;;;;5.40;2.38;;;29.00;72.10;;;;;;6072953;23;20117;-70
2023/07/11 11:56:08;;;;;;;4.28;1.90;;;29.10;75.90;;;;;;6100477;23;20026;-70
2023/07/11 11:58:45;;;;;;;4.05;2.08;;;29.20;70.30;;;;;;6072731;23;20054;-70
2023/07/11 12:01:30;;;;;;;3.38;2.17;;;29.30;70.00;;;;;;6099700;23;20026;-70
2023/07/11 12:03:56;;;;;;;5.45;1.90;;;29.30;68.10;;;;;;6101001;23;20081;-70
2023/07/11 12:06:34;;;;;;;3.83;2.15;;;29.10;68.90;;;;;;6073009;23;20061;-69
2023/07/11 12:09:18;;;;;;;3.03;1.73;;;29.00;68.90;;;;;;6100875;23;20034;-70
2023/07/11 12:11:45;;;;;;;3.42;1.83;;;29.00;73.50;;;;;;6099122;23;20018;-70
2023/07/11 12:14:23;;;;;;;2.28;2.05;;;29.10;72.30;;;;;;6099800;23;20045;-70
2023/07/11 12:16:49;;;;;;;5.50;2.10;;;29.20;66.70;;;;;;6098875;23;20036;-70
2023/07/11 12:19:41;;;;;;;2.95;1.92;;;29.20;66.90;;;;;;6073246;23;20023;-71
2023/07/11 12:22:07;;;;;;;3.78;1.98;;;29.30;65.60;;;;;;6100585;23;20025;-70
2023/07/11 12:24:33;;;;;;;4.07;2.10;;;29.40;66.00;;;;;;6098779;23;20020;-70
2023/07/11 12:27:09;;;;;;;4.75;1.90;;;29.40;64.90;;;;;;6099995;23;20101;-70
2023/07/11 12:29:37;;;;;;;2.53;1.55;;;29.50;63.40;;;;;;6098854;23;20057;-69
2023/07/11 12:32:31;;;;;;;5.88;2.15;;;29.40;62.90;;;;;;6098485;23;20561;-70
2023/07/11 12:35:09;;;;;;;6.15;2.10;;;29.40;62.10;;;;;;6098578;23;20027;-70
2023/07/11 12:37:56;;;;;;;3.03;2.25;;;29.50;64.00;;;;;;6073549;23;20066;-70
2023/07/11 12:40:37;;;;;;;4.53;2.22;;;29.60;63.20;;;;;;6098493;23;20029;-70
2023/07/11 12:43:16;;;;;;;2.75;2.30;;;29.50;62.30;;;;;;6099309;23;20026;-70
2023/07/11 12:46:06;;;;;;;3.13;2.17;;;29.50;61.60;;;;;;6097425;23;20030;-70
2023/07/11 12:48:42;;;;;;;5.05;1.98;;;29.50;62.10;;;;;;6087625;23;20050;-70
2023/07/11 12:51:36;;;;;;;3.33;2.45;;;29.50;62.50;;;;;;6098656;23;20409;-70
2023/07/11 12:54:14;;;;;;;6.80;2.00;;;29.50;63.20;;;;;;6090822;23;20070;-70
2023/07/11 12:56:42;;;;;;;3.90;2.17;;;29.40;61.50;;;;;;6098323;23;20623;-70
2023/07/11 12:59:27;;;;;;;3.53;2.33;;;29.30;62.60;;;;;;6098398;23;20029;-70
2023/07/11 13:01:55;;;;;;;4.15;2.28;;;29.10;61.50;;;;;;6098627;23;20022;-70
2023/07/11 13:04:41;;;;;;;3.00;2.50;;;28.80;62.80;;;;;;6074732;23;20061;-70